1998 TIFFANY (1998023S16125)


On this page: IBTrACS data - Map and Plots - Positions - Intensities - Original source data

Summary

Start Jan 22
End Feb 2
Basin SI
LMI 120 kt
Sources jtwc_sh
bom
neumann
In WMO? Yes
Previous storm 1998 LES (SP)
Previous in basin 1998 LES (SP)
Concurrent storms 1998 KATRINA (SP)
1998 A19798 (SI)
1998 LES (SP)
1998 TIFFANY (SI)
1998 TUI (SP)
1998 VELI (SP)
1998 URSALA (SP)
1998 WES (SP)
1998 BELTANE (SI)
Next in basin 1998 BELTANE (SI)
Next storm 1998 TUI (SP)

top of page IBTrACS Data: File Access

top of page HURSAT Data: File Access

Image of storm

top of page Plots:

Map of storm track will not appear if FTP is down
Time series of cyclone Maximum Sustained Wind will not appear if FTP is down
Time series of cyclone Minimum Central Pressure will not appear if FTP is down

top of page Track Data:Position

jtwc_sh bom neumann
Date Lat Lon Lat Lon Lat Lon
1998-01-22 12:00:00 -17.1 125.6 -15.2 124.6
1998-01-22 18:00:00 -16.9 125.2 -15.7 125.0
1998-01-23 00:00:00 -16.7 124.9 -16.1 124.9 -16.0 125.0
1998-01-23 06:00:00 -16.6 124.6 -16.3 124.6 -16.3 124.7
1998-01-23 12:00:00 -16.6 124.3 -16.5 124.2 -16.4 124.3
1998-01-23 18:00:00 -16.7 124.0 -16.6 123.7 -16.6 123.9
1998-01-24 00:00:00 -16.8 123.7 -16.7 123.3 -16.7 123.4
1998-01-24 06:00:00 -16.9 123.2 -16.8 122.9 -16.8 123.0
1998-01-24 12:00:00 -17.0 122.6 -17.0 122.4 -16.9 122.6
1998-01-24 18:00:00 -17.1 122.0 -17.2 121.7 -17.2 122.0
1998-01-25 00:00:00 -17.2 121.3 -17.2 121.0 -17.1 121.2
1998-01-25 06:00:00 -17.4 120.6 -17.6 120.4 -17.5 120.6
1998-01-25 12:00:00 -17.7 119.9 -17.8 119.7 -17.7 119.9
1998-01-25 18:00:00 -17.9 119.4 -18.0 119.4 -17.9 119.5
1998-01-26 00:00:00 -18.1 119.0 -18.2 119.0 -18.2 119.1
1998-01-26 06:00:00 -18.4 118.6 -18.3 118.7 -18.3 118.8
1998-01-26 12:00:00 -18.5 118.1 -18.4 118.4 -18.4 118.5
1998-01-26 18:00:00 -18.5 117.7 -18.5 117.9 -18.4 118.0
1998-01-27 00:00:00 -18.8 117.3 -18.7 117.4 -18.6 117.6
1998-01-27 06:00:00 -19.0 116.7 -19.0 116.7 -18.9 117.0
1998-01-27 12:00:00 -19.2 115.8 -19.2 115.9 -19.2 116.2
1998-01-27 18:00:00 -19.2 114.9 -19.2 114.5 -19.1 115.2
1998-01-28 00:00:00 -19.4 114.0 -19.2 114.0 -19.2 114.2
1998-01-28 06:00:00 -19.5 113.1 -19.5 112.9 -19.4 113.2
1998-01-28 12:00:00 -19.5 112.0 -19.6 111.9 -19.6 112.2
jtwc_sh bom neumann
1998-01-28 18:00:00 -19.5 110.9 -19.6 110.9 -19.6 111.2
1998-01-29 00:00:00 -19.5 110.0 -19.6 110.2 -19.6 110.4
1998-01-29 06:00:00 -19.6 109.5 -19.6 109.5 -19.6 109.7
1998-01-29 12:00:00 -19.7 109.1 -19.6 108.9 -19.6 109.1
1998-01-29 18:00:00 -19.6 108.7 -19.6 108.5 -19.6 108.6
1998-01-30 00:00:00 -19.5 108.2 -19.5 108.0 -19.5 108.2
1998-01-30 06:00:00 -19.4 107.6 -19.5 107.5 -19.5 107.7
1998-01-30 12:00:00 -19.4 107.0 -19.6 107.1 -19.6 107.2
1998-01-30 18:00:00 -19.4 106.5 -19.6 106.7 -19.6 106.8
1998-01-31 00:00:00 -19.4 106.3 -19.6 106.2 -19.6 106.4
1998-01-31 06:00:00 -19.4 106.1 -19.5 105.8 -19.5 105.9
1998-01-31 12:00:00 -19.4 105.9 -19.3 105.4 -19.4 105.5
1998-01-31 18:00:00 -19.1 105.5 -19.1 105.1 -19.2 105.2
1998-02-01 00:00:00 -18.8 105.0 -18.9 104.8 -19.0 104.9
1998-02-01 06:00:00 -18.2 104.6 -18.7 104.5 -18.7 104.6
1998-02-01 12:00:00 -17.6 104.2 -18.5 104.1 -18.6 104.3
1998-02-01 18:00:00 -18.2 102.9
1998-02-02 00:00:00 -17.9 101.5
1998-02-02 06:00:00 -17.7 100.4
1998-02-02 12:00:00 -17.6 99.5

top of pageTrack Data:Intensity

jtwc_sh bom neumann
Date Wind Pres Wind Pres Wind Pres
1998-01-22 12:00:00 15. 25. 1001.
1998-01-22 18:00:00 15. 23. 1002.
1998-01-23 00:00:00 15. 23. 1002. 25. 1002.
1998-01-23 06:00:00 20. 23. 1002. 25. 1002.
1998-01-23 12:00:00 20. 25. 1001. 25. 1001.
1998-01-23 18:00:00 25. 25. 1001. 25. 1001.
1998-01-24 00:00:00 25. 25. 1001. 25. 1001.
1998-01-24 06:00:00 25. 25. 1001. 25. 1001.
1998-01-24 12:00:00 30. 27. 1000. 30. 1000.
1998-01-24 18:00:00 35. 35. 995. 40. 995.
1998-01-25 00:00:00 50. 49. 985. 55. 985.
1998-01-25 06:00:00 50. 54. 980. 60. 980.
1998-01-25 12:00:00 50. 60. 975. 70. 975.
1998-01-25 18:00:00 55. 64. 970. 75. 970.
1998-01-26 00:00:00 65. 70. 965. 80. 965.
1998-01-26 06:00:00 80. 76. 960. 85. 960.
1998-01-26 12:00:00 95. 84. 950. 95. 955.
1998-01-26 18:00:00 115. 93. 940. 110. 940.
1998-01-27 00:00:00 120. 80. 955. 100. 950.
1998-01-27 06:00:00 120. 89. 945. 95. 955.
1998-01-27 12:00:00 120. 84. 950. 105. 945.
1998-01-27 18:00:00 115. 80. 955. 95. 955.
1998-01-28 00:00:00 110. 80. 955. 95. 955.
1998-01-28 06:00:00 115. 80. 955. 95. 955.
1998-01-28 12:00:00 115. 76. 960. 85. 960.
jtwc_sh bom neumann
1998-01-28 18:00:00 105. 64. 970. 75. 970.
1998-01-29 00:00:00 95. 49. 985. 55. 985.
1998-01-29 06:00:00 80. 49. 985. 55. 985.
1998-01-29 12:00:00 65. 49. 985. 55. 985.
1998-01-29 18:00:00 50. 41. 990. 45. 990.
1998-01-30 00:00:00 40. 35. 995. 40. 995.
1998-01-30 06:00:00 35. 31. 997. 35. 997.
1998-01-30 12:00:00 35. 27. 1000. 30. 1000.
1998-01-30 18:00:00 30. 27. 1000. 30. 1000.
1998-01-31 00:00:00 30. 23. 1002. 25. 1002.
1998-01-31 06:00:00 25. 23. 1002. 25. 1002.
1998-01-31 12:00:00 25. 23. 1002. 25. 1002.
1998-01-31 18:00:00 25. 23. 1002. 25. 1002.
1998-02-01 00:00:00 25. 21. 1004. 20. 1004.
1998-02-01 06:00:00 20. 21. 1004. 20. 1004.
1998-02-01 12:00:00 25. 21. 1004. 20. 1004.
1998-02-01 18:00:00 21. 1004.
1998-02-02 00:00:00 1006.
1998-02-02 06:00:00 1006.
1998-02-02 12:00:00 1006.

top of page Links to source data

Source Source file Format
jtwc_sh bsh151998.txt ATCF
bom Newcyclonedatabase-08repair.csv:Line=18583:TIFFANY CSV file (from Excel file)
neumann tracks.sh:Storm=1117:TIFFANY:BSH151998:FW866 HURDAT